Flight Track Log - Related Links

Times and Time Zones

All times are in EDT time to prevent confusion due to time zone crossing. See the SWA1728 flight status page for this flight to view local times or setup timezone preferences in your user account.

Time Position Orientation Groundspeed Altitude Reporting Facility
EDT Latitude Longitude Course Direction KTS MPH feet Rate Location/Type
Wed 09:22:41 AM 33.4333 -111.9833 90° East 164 189 1,900  Level Phoenix TRACON
Wed 09:23:29 AM 33.4333 -111.9333 90° East 214 246 3,200 2,235 Climbing Phoenix TRACON
Wed 09:24:23 AM 33.4333 -111.8667 90° East 241 277 5,700 2,642 Climbing Phoenix TRACON
Wed 09:25:18 AM 33.4050 -111.8222 127° Southeast 241 277 8,000 3,052 Climbing Albuquerque Center
Wed 09:26:19 AM 33.3689 -111.8792 233° Southwest 230 265 11,600 2,951 Climbing Albuquerque Center
Wed 09:27:20 AM 33.3753 -111.9617 275° West 249 287 14,000 2,016 Climbing Albuquerque Center
Wed 09:28:21 AM 33.3858 -112.0667 277° West 320 368 15,700 2,311 Climbing Albuquerque Center
Wed 09:29:22 AM 33.3964 -112.1833 276° West 347 399 18,700 2,754 Climbing Albuquerque Center
Wed 09:30:23 AM 33.4075 -112.3025 276° West 357 411 21,300 2,803 Climbing Albuquerque Center
Wed 09:31:24 AM 33.4206 -112.4511 276° West 373 429 24,400 2,410 Climbing Albuquerque Center
Wed 09:32:25 AM 33.4317 -112.5756 276° West 376 433 26,200 1,268 Climbing Albuquerque Center
Wed 09:33:27 AM 33.4614 -112.6867 288° West 403 464 27,000 2,049 Climbing Albuquerque Center
Wed 09:34:28 AM 33.5114 -112.8378 292° West 411 473 30,400 2,459 Climbing Albuquerque Center
Wed 09:35:29 AM 33.5503 -112.9556 292° West 392 451 32,000 787 Climbing Albuquerque Center
Wed 09:36:30 AM 33.5908 -113.0825 291° West 401 461 32,000 1,180 Level Albuquerque Center
Wed 09:37:31 AM 33.6319 -113.2056 292° West 402 463 34,400 1,967 Climbing Albuquerque Center
Wed 09:38:32 AM 33.6694 -113.3194 292° West 388 447 36,000 787 Climbing Albuquerque Center
Wed 09:39:33 AM 33.7064 -113.4367 291° West 378 435 36,000  Level Albuquerque Center
Wed 09:40:34 AM 33.7453 -113.5564 291° West 381 438 36,000  Level Albuquerque Center
Wed 09:41:35 AM 33.7844 -113.6756 292° West 382 440 36,000  Level Albuquerque Center
Wed 09:42:36 AM 33.8233 -113.7950 291° West 384 442 36,000  Level Albuquerque Center
Wed 09:43:37 AM 33.8678 -113.9394 290° West 383 441 36,000  Level Albuquerque Center
Wed 09:44:39 AM 33.9072 -114.0603 292° West 386 444 36,000 -49 Level Albuquerque Center
Wed 09:45:40 AM 33.9433 -114.1808 290° West 386 444 35,900  Descending Albuquerque Center
Wed 09:46:41 AM 33.9433 -114.3069 270° West 377 434 36,000 50 Climbing Albuquerque Center
Wed 09:47:39 AM 33.9447 -114.4178 271° West 374 430 36,000  Level Los Angeles Center
Wed 09:48:41 AM 33.9464 -114.5433 271° West 376 433 36,000  Level Los Angeles Center
Wed 09:49:42 AM 33.9494 -114.6939 271° West 376 433 36,000  Level Los Angeles Center
Wed 09:50:44 AM 33.9506 -114.8197 271° West 376 433 36,000 -488 Level Los Angeles Center
Wed 09:51:45 AM 33.9508 -114.9456 270° West 378 435 35,000 -976 Descending Los Angeles Center
Wed 09:52:47 AM 33.9531 -115.0697 271° West 374 430 34,000 -488 Descending Los Angeles Center
Wed 09:53:48 AM 33.9536 -115.1969 270° West 380 437 34,000  Level Los Angeles Center
Wed 09:54:49 AM 33.9553 -115.3244 271° West 382 440 34,000  Level Los Angeles Center
Wed 09:55:51 AM 33.9553 -115.4542 270° West 388 447 34,000  Level Los Angeles Center
Wed 09:56:52 AM 33.9569 -115.5844 271° West 392 451 34,000 -244 Level Los Angeles Center
Wed 09:57:54 AM 33.9572 -115.7417 270° West 393 452 33,500 -780 Descending Los Angeles Center
Wed 09:58:55 AM 33.9572 -115.8708 270° West 389 448 32,400 -976 Descending Los Angeles Center
Wed 09:59:57 AM 33.9578 -116.0006 270° West 389 448 31,500 -927 Descending Los Angeles Center
Wed 10:00:58 AM 33.9578 -116.1317 270° West 392 451 30,500 -927 Descending Los Angeles Center
Wed 10:02:00 AM 33.9575 -116.2656 270° West 400 460 29,600 -484 Descending Los Angeles Center
Wed 10:03:02 AM 33.9572 -116.4006 270° West 403 464 29,500 -585 Descending Los Angeles Center
Wed 10:04:03 AM 33.9578 -116.5358 270° West 405 466 28,400 -2,049 Descending Los Angeles Center
Wed 10:05:05 AM 33.9569 -116.6944 270° West 398 458 25,300 -2,732 Descending Los Angeles Center
Wed 10:06:06 AM 33.9553 -116.8225 269° West 387 445 22,800 -2,509 Descending Los Angeles Center
Wed 10:06:55 AM 33.9500 -116.9333 267° West 355 409 20,700 -2,367 Descending Southern California TRACON
Wed 10:07:55 AM 33.9500 -117.0333 270° West 354 407 18,500 -1,850 Descending Southern California TRACON
Wed 10:08:55 AM 33.9500 -117.1500 270° West 344 396 17,000 -750 Descending Southern California TRACON
Wed 10:09:55 AM 33.9333 -117.2667 260° West 347 399 17,000 -810 Level Southern California TRACON
Wed 10:11:01 AM 33.9500 -117.4000 279° West 367 422 15,300 -1,909 Descending Southern California TRACON
Wed 10:12:07 AM 33.9833 -117.5167 289° West 345 397 12,800 -2,150 Descending Southern California TRACON
Wed 10:13:01 AM 34.0167 -117.6167 292° West 398 458 11,000 -1,556 Descending Southern California TRACON
Wed 10:13:55 AM 34.0167 -117.7167 270° West 297 342 10,000 -1,316 Descending Southern California TRACON
Wed 10:14:55 AM 34.0167 -117.8000 270° West 284 327 8,500 -1,526 Descending Southern California TRACON
Wed 10:15:49 AM 34.0000 -117.9000 259° West 282 325 7,100 -1,050 Descending Southern California TRACON
Wed 10:16:55 AM 34.0000 -117.9833 270° West 253 291 6,400 -1,087 Descending Southern California TRACON
Wed 10:17:56 AM 33.9833 -118.0667 256° West 256 295 4,800 -1,190 Descending Southern California TRACON
Wed 10:18:56 AM 33.9833 -118.1500 270° West 247 284 4,000 -587 Descending Southern California TRACON
Wed 10:19:28 AM 33.9750 -118.1828 253° West 247 284 3,900 -903 Descending Los Angeles Center
Wed 10:20:29 AM 33.9681 -118.2586 264° West 200 230 2,600 -1,073 Descending Los Angeles Center
Wed 10:21:31 AM 33.9614 -118.3108 261° West 177 204 1,700 -823 Descending Los Angeles Center
Wed 10:22:33 AM 33.9575 -118.3589 264° West 159 183 900 -774 Descending Los Angeles Center
Wed 10:23:35 AM 33.9528 -118.4044 263° West 147 169 100 -774 Descending Los Angeles Center
Wed 10:25:00 AM 33.9425 -118.4081 270° West  Level Estimated

Login

Don't have an account? Register now (free) for customized features, flight alerts, and more!